sensor_id;sensor_type;location;lat;lon;timestamp;pressure;altitude;pressure_sealevel;temperature;humidity
61900;BME280;47853;55.890;37.664;2024-02-15T00:01:43;100650.84;;;-9.93;93.95
61900;BME280;47853;55.890;37.664;2024-02-15T00:04:08;100644.03;;;-10.12;95.77
61900;BME280;47853;55.890;37.664;2024-02-15T00:06:33;100643.22;;;-10.13;95.21
61900;BME280;47853;55.890;37.664;2024-02-15T00:08:59;100660.88;;;-9.43;94.63
61900;BME280;47853;55.890;37.664;2024-02-15T00:11:24;100627.47;;;-9.55;93.60
61900;BME280;47853;55.890;37.664;2024-02-15T00:13:50;100644.97;;;-10.30;94.26
61900;BME280;47853;55.890;37.664;2024-02-15T00:16:15;100635.41;;;-9.89;99.18
61900;BME280;47853;55.890;37.664;2024-02-15T00:18:41;100634.69;;;-10.30;99.47
61900;BME280;47853;55.890;37.664;2024-02-15T00:21:06;100661.19;;;-10.13;100.00
61900;BME280;47853;55.890;37.664;2024-02-15T00:23:32;100656.63;;;-9.53;100.00
61900;BME280;47853;55.890;37.664;2024-02-15T00:25:57;100646.53;;;-9.89;99.01
61900;BME280;47853;55.890;37.664;2024-02-15T00:28:23;100625.25;;;-10.25;100.00
61900;BME280;47853;55.890;37.664;2024-02-15T00:30:48;100648.41;;;-10.38;100.00
61900;BME280;47853;55.890;37.664;2024-02-15T00:33:14;100625.22;;;-10.16;100.00
61900;BME280;47853;55.890;37.664;2024-02-15T00:35:39;100629.69;;;-10.72;100.00
61900;BME280;47853;55.890;37.664;2024-02-15T00:38:05;100616.00;;;-10.88;100.00
61900;BME280;47853;55.890;37.664;2024-02-15T00:40:33;100611.69;;;-10.66;100.00
61900;BME280;47853;55.890;37.664;2024-02-15T00:42:58;100629.69;;;-11.00;100.00
61900;BME280;47853;55.890;37.664;2024-02-15T00:45:24;100634.81;;;-10.72;100.00
61900;BME280;47853;55.890;37.664;2024-02-15T00:47:49;100626.09;;;-10.18;100.00
61900;BME280;47853;55.890;37.664;2024-02-15T00:50:15;100620.25;;;-10.56;100.00
61900;BME280;47853;55.890;37.664;2024-02-15T00:52:40;100620.16;;;-10.33;99.39
61900;BME280;47853;55.890;37.664;2024-02-15T00:55:06;100616.84;;;-10.75;98.43
61900;BME280;47853;55.890;37.664;2024-02-15T00:57:31;100610.88;;;-10.88;100.00
61900;BME280;47853;55.890;37.664;2024-02-15T00:59:57;100629.31;;;-9.76;100.00
61900;BME280;47853;55.890;37.664;2024-02-15T01:02:22;100638.91;;;-10.20;97.79
61900;BME280;47853;55.890;37.664;2024-02-15T01:04:47;100631.94;;;-9.87;94.59
61900;BME280;47853;55.890;37.664;2024-02-15T01:07:13;100638.13;;;-10.30;99.71
61900;BME280;47853;55.890;37.664;2024-02-15T01:09:38;100624.50;;;-10.49;99.79
61900;BME280;47853;55.890;37.664;2024-02-15T01:12:04;100607.44;;;-10.78;100.00
61900;BME280;47853;55.890;37.664;2024-02-15T01:14:30;100590.28;;;-10.56;99.73
61900;BME280;47853;55.890;37.664;2024-02-15T01:16:58;100618.34;;;-10.12;99.12
61900;BME280;47853;55.890;37.664;2024-02-15T01:19:23;100625.38;;;-10.61;99.28
61900;BME280;47853;55.890;37.664;2024-02-15T01:21:49;100620.25;;;-10.67;100.00
61900;BME280;47853;55.890;37.664;2024-02-15T01:24:14;100601.38;;;-10.47;100.00
61900;BME280;47853;55.890;37.664;2024-02-15T01:26:43;100608.16;;;-10.32;100.00
61900;BME280;47853;55.890;37.664;2024-02-15T01:29:09;100609.16;;;-10.80;100.00
61900;BME280;47853;55.890;37.664;2024-02-15T01:31:34;100619.38;;;-10.61;100.00
61900;BME280;47853;55.890;37.664;2024-02-15T01:33:59;100600.59;;;-10.87;100.00
61900;BME280;47853;55.890;37.664;2024-02-15T01:36:25;100604.75;;;-10.36;100.00
61900;BME280;47853;55.890;37.664;2024-02-15T01:38:50;100586.00;;;-10.58;100.00
61900;BME280;47853;55.890;37.664;2024-02-15T01:41:16;100588.66;;;-11.20;100.00
61900;BME280;47853;55.890;37.664;2024-02-15T01:43:44;100577.53;;;-11.10;100.00
61900;BME280;47853;55.890;37.664;2024-02-15T01:46:10;100579.25;;;-11.03;100.00
61900;BME280;47853;55.890;37.664;2024-02-15T01:48:37;100578.38;;;-10.99;100.00
61900;BME280;47853;55.890;37.664;2024-02-15T01:51:03;100582.63;;;-10.74;100.00
61900;BME280;47853;55.890;37.664;2024-02-15T01:53:29;100620.22;;;-10.53;100.00
61900;BME280;47853;55.890;37.664;2024-02-15T01:55:55;100618.50;;;-10.56;100.00
61900;BME280;47853;55.890;37.664;2024-02-15T01:58:21;100592.78;;;-10.40;100.00
61900;BME280;47853;55.890;37.664;2024-02-15T02:00:47;100595.22;;;-10.12;100.00
61900;BME280;47853;55.890;37.664;2024-02-15T02:03:14;100621.75;;;-10.06;100.00
61900;BME280;47853;55.890;37.664;2024-02-15T02:05:41;100596.06;;;-10.06;100.00
61900;BME280;47853;55.890;37.664;2024-02-15T02:08:07;100609.78;;;-10.19;100.00
61900;BME280;47853;55.890;37.664;2024-02-15T02:10:33;100610.78;;;-10.46;100.00
61900;BME280;47853;55.890;37.664;2024-02-15T02:13:00;100603.84;;;-10.23;100.00
61900;BME280;47853;55.890;37.664;2024-02-15T02:15:25;100624.44;;;-10.37;100.00
61900;BME280;47853;55.890;37.664;2024-02-15T02:17:50;100602.06;;;-10.08;100.00
61900;BME280;47853;55.890;37.664;2024-02-15T02:20:16;100592.59;;;-9.98;100.00
61900;BME280;47853;55.890;37.664;2024-02-15T02:22:41;100620.84;;;-10.00;100.00
61900;BME280;47853;55.890;37.664;2024-02-15T02:25:09;100597.94;;;-10.50;100.00
61900;BME280;47853;55.890;37.664;2024-02-15T02:27:35;100620.25;;;-10.61;100.00
61900;BME280;47853;55.890;37.664;2024-02-15T02:30:01;100609.88;;;-10.33;100.00
61900;BME280;47853;55.890;37.664;2024-02-15T02:32:27;100609.16;;;-10.82;100.00
61900;BME280;47853;55.890;37.664;2024-02-15T02:34:53;100597.84;;;-10.29;100.00
61900;BME280;47853;55.890;37.664;2024-02-15T02:37:18;100616.78;;;-10.47;100.00
61900;BME280;47853;55.890;37.664;2024-02-15T02:39:44;100619.38;;;-10.57;100.00
61900;BME280;47853;55.890;37.664;2024-02-15T02:42:09;100610.91;;;-11.15;100.00
61900;BME280;47853;55.890;37.664;2024-02-15T02:44:35;100636.53;;;-10.96;100.00
61900;BME280;47853;55.890;37.664;2024-02-15T02:47:00;100642.38;;;-10.30;100.00
61900;BME280;47853;55.890;37.664;2024-02-15T02:49:26;100610.88;;;-11.09;100.00
61900;BME280;47853;55.890;37.664;2024-02-15T02:51:51;100617.72;;;-10.97;100.00
61900;BME280;47853;55.890;37.664;2024-02-15T02:54:17;100634.81;;;-11.41;100.00
61900;BME280;47853;55.890;37.664;2024-02-15T02:56:42;100635.63;;;-10.50;100.00
61900;BME280;47853;55.890;37.664;2024-02-15T02:59:08;100636.47;;;-10.43;100.00
61900;BME280;47853;55.890;37.664;2024-02-15T03:01:33;100627.97;;;-10.98;100.00
61900;BME280;47853;55.890;37.664;2024-02-15T03:04:01;100621.16;;;-10.99;100.00
61900;BME280;47853;55.890;37.664;2024-02-15T03:06:27;100612.59;;;-10.95;100.00
61900;BME280;47853;55.890;37.664;2024-02-15T03:08:52;100610.00;;;-10.78;100.00
61900;BME280;47853;55.890;37.664;2024-02-15T03:11:18;100611.72;;;-10.72;100.00
61900;BME280;47853;55.890;37.664;2024-02-15T03:13:43;100632.25;;;-11.08;100.00
61900;BME280;47853;55.890;37.664;2024-02-15T03:16:32;100594.59;;;-10.73;100.00
61900;BME280;47853;55.890;37.664;2024-02-15T03:25:26;100656.97;;;-10.36;100.00
61900;BME280;47853;55.890;37.664;2024-02-15T03:27:58;100636.53;;;-10.85;100.00
61900;BME280;47853;55.890;37.664;2024-02-15T03:30:27;100623.63;;;-10.42;100.00
61900;BME280;47853;55.890;37.664;2024-02-15T03:32:53;100616.84;;;-10.77;100.00
61900;BME280;47853;55.890;37.664;2024-02-15T03:35:20;100647.66;;;-10.97;100.00
61900;BME280;47853;55.890;37.664;2024-02-15T03:37:46;100618.56;;;-10.81;100.00
61900;BME280;47853;55.890;37.664;2024-02-15T03:40:12;100626.22;;;-10.56;100.00
61900;BME280;47853;55.890;37.664;2024-02-15T03:42:37;100648.53;;;-11.23;100.00
61900;BME280;47853;55.890;37.664;2024-02-15T03:45:04;100643.41;;;-10.97;100.00
61900;BME280;47853;55.890;37.664;2024-02-15T03:50:52;100582.66;;;-11.09;100.00
61900;BME280;47853;55.890;37.664;2024-02-15T03:53:17;100620.25;;;-10.75;100.00
61900;BME280;47853;55.890;37.664;2024-02-15T03:55:43;100651.94;;;-10.82;100.00
61900;BME280;47853;55.890;37.664;2024-02-15T03:58:08;100651.06;;;-10.75;100.00
61900;BME280;47853;55.890;37.664;2024-02-15T04:00:34;100628.66;;;-10.23;100.00
61900;BME280;47853;55.890;37.664;2024-02-15T04:03:00;100663.00;;;-10.41;100.00
61900;BME280;47853;55.890;37.664;2024-02-15T04:05:25;100633.97;;;-10.91;100.00
61900;BME280;47853;55.890;37.664;2024-02-15T04:07:50;100636.53;;;-10.79;100.00
61900;BME280;47853;55.890;37.664;2024-02-15T04:10:16;100649.34;;;-10.54;100.00
61900;BME280;47853;55.890;37.664;2024-02-15T04:12:41;100640.81;;;-10.92;100.00
61900;BME280;47853;55.890;37.664;2024-02-15T04:15:07;100641.66;;;-10.85;100.00
61900;BME280;47853;55.890;37.664;2024-02-15T04:17:32;100654.50;;;-11.05;100.00
61900;BME280;47853;55.890;37.664;2024-02-15T04:19:58;100646.81;;;-10.77;100.00
61900;BME280;47853;55.890;37.664;2024-02-15T04:22:24;100651.94;;;-10.91;100.00
61900;BME280;47853;55.890;37.664;2024-02-15T04:24:49;100651.78;;;-10.26;100.00
61900;BME280;47853;55.890;37.664;2024-02-15T04:27:15;100650.16;;;-10.43;100.00
61900;BME280;47853;55.890;37.664;2024-02-15T04:29:41;100659.63;;;-10.57;100.00
61900;BME280;47853;55.890;37.664;2024-02-15T04:32:12;100659.59;;;-10.64;100.00
61900;BME280;47853;55.890;37.664;2024-02-15T04:34:38;100650.19;;;-10.57;100.00
61900;BME280;47853;55.890;37.664;2024-02-15T04:37:03;100633.00;;;-10.36;100.00
61900;BME280;47853;55.890;37.664;2024-02-15T04:39:29;100639.13;;;-10.91;100.00
61900;BME280;47853;55.890;37.664;2024-02-15T04:41:55;100652.78;;;-10.94;100.00
61900;BME280;47853;55.890;37.664;2024-02-15T04:44:20;100626.25;;;-10.93;100.00
61900;BME280;47853;55.890;37.664;2024-02-15T04:46:46;100644.22;;;-11.19;100.00
61900;BME280;47853;55.890;37.664;2024-02-15T04:49:19;100658.78;;;-10.89;100.00
61900;BME280;47853;55.890;37.664;2024-02-15T04:51:46;100627.06;;;-10.46;100.00
61900;BME280;47853;55.890;37.664;2024-02-15T04:54:11;100658.75;;;-10.55;100.00
61900;BME280;47853;55.890;37.664;2024-02-15T04:56:40;100661.31;;;-10.58;100.00
61900;BME280;47853;55.890;37.664;2024-02-15T04:59:06;100663.06;;;-10.75;100.00
61900;BME280;47853;55.890;37.664;2024-02-15T05:01:32;100667.31;;;-11.10;100.00
61900;BME280;47853;55.890;37.664;2024-02-15T05:03:57;100664.75;;;-11.13;100.00
61900;BME280;47853;55.890;37.664;2024-02-15T05:06:23;100660.47;;;-11.28;100.00
61900;BME280;47853;55.890;37.664;2024-02-15T05:08:48;100654.53;;;-10.98;100.00
61900;BME280;47853;55.890;37.664;2024-02-15T05:11:16;100687.84;;;-10.93;100.00
61900;BME280;47853;55.890;37.664;2024-02-15T05:13:42;100679.28;;;-11.06;100.00
61900;BME280;47853;55.890;37.664;2024-02-15T05:16:07;100654.47;;;-10.48;100.00
61900;BME280;47853;55.890;37.664;2024-02-15T05:18:33;100651.91;;;-10.57;100.00
61900;BME280;47853;55.890;37.664;2024-02-15T05:20:58;100660.50;;;-10.82;100.00
61900;BME280;47853;55.890;37.664;2024-02-15T05:23:24;100687.88;;;-10.77;100.00
61900;BME280;47853;55.890;37.664;2024-02-15T05:25:49;100688.72;;;-10.94;100.00
61900;BME280;47853;55.890;37.664;2024-02-15T05:28:15;100691.16;;;-10.18;100.00
61900;BME280;47853;55.890;37.664;2024-02-15T05:30:40;100668.16;;;-10.47;100.00
61900;BME280;47853;55.890;37.664;2024-02-15T05:33:05;100704.97;;;-10.49;100.00
61900;BME280;47853;55.890;37.664;2024-02-15T05:35:33;100668.94;;;-10.30;100.00
61900;BME280;47853;55.890;37.664;2024-02-15T05:38:01;100678.41;;;-10.47;100.00
61900;BME280;47853;55.890;37.664;2024-02-15T05:40:26;100712.59;;;-10.31;100.00
61900;BME280;47853;55.890;37.664;2024-02-15T05:42:55;100719.47;;;-10.34;100.00
61900;BME280;47853;55.890;37.664;2024-02-15T05:47:53;100706.69;;;-10.74;100.00
61900;BME280;47853;55.890;37.664;2024-02-15T05:50:18;100728.00;;;-10.10;100.00
61900;BME280;47853;55.890;37.664;2024-02-15T05:52:44;100712.50;;;-9.91;100.00
61900;BME280;47853;55.890;37.664;2024-02-15T05:55:09;100732.25;;;-9.99;100.00
61900;BME280;47853;55.890;37.664;2024-02-15T05:57:35;100713.41;;;-9.94;100.00
61900;BME280;47853;55.890;37.664;2024-02-15T06:00:00;100722.78;;;-9.91;100.00
61900;BME280;47853;55.890;37.664;2024-02-15T06:02:26;100700.53;;;-9.98;100.00
61900;BME280;47853;55.890;37.664;2024-02-15T06:04:51;100679.13;;;-9.97;100.00
61900;BME280;47853;55.890;37.664;2024-02-15T06:07:16;100683.44;;;-10.02;100.00
61900;BME280;47853;55.890;37.664;2024-02-15T06:09:42;100728.72;;;-9.64;100.00
61900;BME280;47853;55.890;37.664;2024-02-15T06:12:07;100739.13;;;-10.05;100.00
61900;BME280;47853;55.890;37.664;2024-02-15T06:14:33;100736.56;;;-10.09;100.00
61900;BME280;47853;55.890;37.664;2024-02-15T06:16:58;100740.75;;;-9.79;100.00
61900;BME280;47853;55.890;37.664;2024-02-15T06:19:27;100709.97;;;-10.00;100.00
61900;BME280;47853;55.890;37.664;2024-02-15T06:21:53;100742.47;;;-9.71;100.00
61900;BME280;47853;55.890;37.664;2024-02-15T06:24:18;100745.06;;;-9.85;100.00
61900;BME280;47853;55.890;37.664;2024-02-15T06:26:44;100756.03;;;-9.41;100.00
61900;BME280;47853;55.890;37.664;2024-02-15T06:29:09;100756.94;;;-9.56;100.00
61900;BME280;47853;55.890;37.664;2024-02-15T06:31:34;100740.06;;;-10.47;100.00
61900;BME280;47853;55.890;37.664;2024-02-15T06:34:00;100756.19;;;-9.85;100.00
61900;BME280;47853;55.890;37.664;2024-02-15T06:36:25;100754.50;;;-9.91;100.00
61900;BME280;47853;55.890;37.664;2024-02-15T06:38:51;100763.69;;;-9.32;100.00
61900;BME280;47853;55.890;37.664;2024-02-15T06:41:16;100748.50;;;-9.88;100.00
61900;BME280;47853;55.890;37.664;2024-02-15T06:43:42;100760.94;;;-8.96;100.00
61900;BME280;47853;55.890;37.664;2024-02-15T06:46:07;100762.06;;;-9.53;100.00
61900;BME280;47853;55.890;37.664;2024-02-15T06:48:33;100746.63;;;-9.45;100.00
61900;BME280;47853;55.890;37.664;2024-02-15T06:50:58;100750.25;;;-10.07;100.00
61900;BME280;47853;55.890;37.664;2024-02-15T06:53:24;100731.28;;;-9.69;100.00
61900;BME280;47853;55.890;37.664;2024-02-15T06:55:49;100744.16;;;-9.75;100.00
61900;BME280;47853;55.890;37.664;2024-02-15T06:58:16;100751.81;;;-9.58;100.00
61900;BME280;47853;55.890;37.664;2024-02-15T07:00:42;100730.50;;;-9.88;100.00
61900;BME280;47853;55.890;37.664;2024-02-15T07:03:07;100734.56;;;-9.36;100.00
61900;BME280;47853;55.890;37.664;2024-02-15T07:05:32;100756.22;;;-9.94;100.00
61900;BME280;47853;55.890;37.664;2024-02-15T07:07:58;100763.06;;;-9.93;100.00
61900;BME280;47853;55.890;37.664;2024-02-15T07:10:23;100718.56;;;-10.06;100.00
61900;BME280;47853;55.890;37.664;2024-02-15T07:12:49;100716.94;;;-10.44;100.00
61900;BME280;47853;55.890;37.664;2024-02-15T07:15:14;100751.06;;;-9.88;100.00
61900;BME280;47853;55.890;37.664;2024-02-15T07:17:40;100739.16;;;-10.28;100.00
61900;BME280;47853;55.890;37.664;2024-02-15T07:20:06;100744.25;;;-10.03;100.00
61900;BME280;47853;55.890;37.664;2024-02-15T07:22:32;100739.88;;;-9.71;100.00
61900;BME280;47853;55.890;37.664;2024-02-15T07:24:57;100752.81;;;-10.04;100.00
61900;BME280;47853;55.890;37.664;2024-02-15T07:27:23;100757.97;;;-10.02;100.00
61900;BME280;47853;55.890;37.664;2024-02-15T07:29:48;100766.53;;;-10.11;100.00
61900;BME280;47853;55.890;37.664;2024-02-15T07:32:14;100750.00;;;-9.36;100.00
61900;BME280;47853;55.890;37.664;2024-02-15T07:34:39;100762.97;;;-9.59;100.00
61900;BME280;47853;55.890;37.664;2024-02-15T07:37:07;100768.97;;;-9.58;100.00
61900;BME280;47853;55.890;37.664;2024-02-15T07:39:32;100770.72;;;-9.67;100.00
61900;BME280;47853;55.890;37.664;2024-02-15T07:41:57;100774.06;;;-9.40;100.00
61900;BME280;47853;55.890;37.664;2024-02-15T07:44:23;100771.19;;;-8.87;100.00
61900;BME280;47853;55.890;37.664;2024-02-15T07:46:48;100763.44;;;-8.85;100.00
61900;BME280;47853;55.890;37.664;2024-02-15T07:49:14;100753.41;;;-9.30;100.00
61900;BME280;47853;55.890;37.664;2024-02-15T07:51:39;100781.78;;;-9.48;100.00
61900;BME280;47853;55.890;37.664;2024-02-15T07:54:05;100770.41;;;-9.00;100.00
61900;BME280;47853;55.890;37.664;2024-02-15T07:56:30;100768.38;;;-8.57;100.00
61900;BME280;47853;55.890;37.664;2024-02-15T07:58:55;100793.63;;;-9.11;99.24
61900;BME280;47853;55.890;37.664;2024-02-15T08:01:21;100754.16;;;-9.08;98.86
61900;BME280;47853;55.890;37.664;2024-02-15T08:03:47;100782.69;;;-8.24;94.35
61900;BME280;47853;55.890;37.664;2024-02-15T08:06:13;100774.50;;;-8.71;97.36
61900;BME280;47853;55.890;37.664;2024-02-15T08:08:42;100785.00;;;-9.07;96.69
61900;BME280;47853;55.890;37.664;2024-02-15T08:11:08;100785.81;;;-8.92;95.33
61900;BME280;47853;55.890;37.664;2024-02-15T08:13:34;100790.53;;;-8.36;95.52
61900;BME280;47853;55.890;37.664;2024-02-15T08:15:59;100775.44;;;-8.83;94.92
61900;BME280;47853;55.890;37.664;2024-02-15T08:18:25;100792.81;;;-9.19;96.99
61900;BME280;47853;55.890;37.664;2024-02-15T08:20:50;100791.66;;;-8.67;95.54
61900;BME280;47853;55.890;37.664;2024-02-15T08:23:15;100787.28;;;-8.55;94.30
61900;BME280;47853;55.890;37.664;2024-02-15T08:25:41;100797.84;;;-8.99;94.36
61900;BME280;47853;55.890;37.664;2024-02-15T08:28:06;100799.50;;;-8.87;92.75
61900;BME280;47853;55.890;37.664;2024-02-15T08:30:32;100806.94;;;-8.47;92.85
61900;BME280;47853;55.890;37.664;2024-02-15T08:32:57;100778.88;;;-8.84;93.74
61900;BME280;47853;55.890;37.664;2024-02-15T08:35:23;100789.13;;;-8.75;92.40
61900;BME280;47853;55.890;37.664;2024-02-15T08:37:48;100796.81;;;-7.76;92.01
61900;BME280;47853;55.890;37.664;2024-02-15T08:40:14;100788.31;;;-8.83;90.05
61900;BME280;47853;55.890;37.664;2024-02-15T08:42:43;100820.84;;;-8.68;90.10
61900;BME280;47853;55.890;37.664;2024-02-15T08:45:10;100779.72;;;-8.79;92.10
61900;BME280;47853;55.890;37.664;2024-02-15T08:47:42;100783.09;;;-8.69;90.18
61900;BME280;47853;55.890;37.664;2024-02-15T08:50:11;100799.25;;;-8.51;90.34
61900;BME280;47853;55.890;37.664;2024-02-15T08:52:38;100801.25;;;-8.92;89.48
61900;BME280;47853;55.890;37.664;2024-02-15T08:55:05;100786.09;;;-9.45;93.73
61900;BME280;47853;55.890;37.664;2024-02-15T08:57:31;100802.34;;;-9.37;93.87
61900;BME280;47853;55.890;37.664;2024-02-15T08:59:59;100801.06;;;-8.61;93.43
61900;BME280;47853;55.890;37.664;2024-02-15T09:02:27;100796.19;;;-9.09;91.67
61900;BME280;47853;55.890;37.664;2024-02-15T09:04:53;100808.28;;;-9.21;92.74
61900;BME280;47853;55.890;37.664;2024-02-15T09:07:18;100804.97;;;-9.62;94.70
61900;BME280;47853;55.890;37.664;2024-02-15T09:09:44;100792.03;;;-9.34;95.66
61900;BME280;47853;55.890;37.664;2024-02-15T09:12:09;100772.41;;;-9.61;94.16
61900;BME280;47853;55.890;37.664;2024-02-15T09:14:35;100791.91;;;-9.07;94.55
61900;BME280;47853;55.890;37.664;2024-02-15T09:17:03;100768.34;;;-8.51;95.48
61900;BME280;47853;55.890;37.664;2024-02-15T09:19:37;100775.63;;;-9.12;91.20
61900;BME280;47853;55.890;37.664;2024-02-15T09:22:06;100808.13;;;-8.93;90.77
61900;BME280;47853;55.890;37.664;2024-02-15T09:24:31;100801.31;;;-7.92;88.73
61900;BME280;47853;55.890;37.664;2024-02-15T09:26:57;100801.09;;;-8.70;89.09
61900;BME280;47853;55.890;37.664;2024-02-15T09:29:22;100777.16;;;-8.82;91.97
61900;BME280;47853;55.890;37.664;2024-02-15T09:31:50;100802.13;;;-8.93;90.56
61900;BME280;47853;55.890;37.664;2024-02-15T09:34:16;100805.63;;;-9.10;91.61
61900;BME280;47853;55.890;37.664;2024-02-15T09:36:41;100792.78;;;-9.13;92.77
61900;BME280;47853;55.890;37.664;2024-02-15T09:39:07;100802.22;;;-9.13;93.29
61900;BME280;47853;55.890;37.664;2024-02-15T09:41:32;100821.91;;;-9.01;93.20
61900;BME280;47853;55.890;37.664;2024-02-15T09:43:58;100777.25;;;-8.97;92.69
61900;BME280;47853;55.890;37.664;2024-02-15T09:46:23;100800.16;;;-8.54;93.30
61900;BME280;47853;55.890;37.664;2024-02-15T09:48:55;100819.00;;;-8.50;91.58
61900;BME280;47853;55.890;37.664;2024-02-15T09:51:21;100802.81;;;-8.69;90.77
61900;BME280;47853;55.890;37.664;2024-02-15T09:53:47;100790.00;;;-8.79;89.84
61900;BME280;47853;55.890;37.664;2024-02-15T09:56:14;100786.47;;;-8.65;91.54
61900;BME280;47853;55.890;37.664;2024-02-15T09:58:40;100778.69;;;-8.57;90.70
61900;BME280;47853;55.890;37.664;2024-02-15T10:01:08;100772.53;;;-8.44;91.47
61900;BME280;47853;55.890;37.664;2024-02-15T10:03:37;100795.16;;;-8.77;92.15
61900;BME280;47853;55.890;37.664;2024-02-15T10:06:03;100800.88;;;-8.42;90.25
61900;BME280;47853;55.890;37.664;2024-02-15T10:08:29;100820.00;;;-8.71;88.43
61900;BME280;47853;55.890;37.664;2024-02-15T10:11:08;100808.06;;;-8.80;91.32
61900;BME280;47853;55.890;37.664;2024-02-15T10:13:34;100808.19;;;-9.07;93.25
61900;BME280;47853;55.890;37.664;2024-02-15T10:16:14;100776.34;;;-8.90;91.17
61900;BME280;47853;55.890;37.664;2024-02-15T10:18:39;100786.53;;;-8.71;91.91
61900;BME280;47853;55.890;37.664;2024-02-15T10:21:05;100774.34;;;-8.49;90.06
61900;BME280;47853;55.890;37.664;2024-02-15T10:23:30;100814.75;;;-8.53;90.17
61900;BME280;47853;55.890;37.664;2024-02-15T10:25:56;100806.25;;;-8.67;91.78
61900;BME280;47853;55.890;37.664;2024-02-15T10:28:21;100814.03;;;-7.00;90.34
61900;BME280;47853;55.890;37.664;2024-02-15T10:30:47;100787.88;;;-7.43;85.43
61900;BME280;47853;55.890;37.664;2024-02-15T10:33:19;100803.31;;;-7.41;81.58
61900;BME280;47853;55.890;37.664;2024-02-15T10:35:45;100821.13;;;-7.18;80.89
61900;BME280;47853;55.890;37.664;2024-02-15T10:38:11;100823.66;;;-7.91;84.59
61900;BME280;47853;55.890;37.664;2024-02-15T10:40:37;100816.16;;;-7.33;85.13
61900;BME280;47853;55.890;37.664;2024-02-15T10:43:03;100801.03;;;-6.95;83.36
61900;BME280;47853;55.890;37.664;2024-02-15T10:45:31;100826.41;;;-6.08;80.60
61900;BME280;47853;55.890;37.664;2024-02-15T10:47:57;100826.44;;;-7.30;79.42
61900;BME280;47853;55.890;37.664;2024-02-15T10:50:23;100825.03;;;-7.58;83.37
61900;BME280;47853;55.890;37.664;2024-02-15T10:52:54;100818.69;;;-7.30;81.39
61900;BME280;47853;55.890;37.664;2024-02-15T10:55:38;100831.47;;;-8.04;85.20
61900;BME280;47853;55.890;37.664;2024-02-15T10:58:06;100817.88;;;-7.34;88.42
61900;BME280;47853;55.890;37.664;2024-02-15T11:00:35;100819.16;;;-6.99;85.27
61900;BME280;47853;55.890;37.664;2024-02-15T11:03:02;100806.53;;;-7.22;85.15
61900;BME280;47853;55.890;37.664;2024-02-15T11:05:35;100823.91;;;-8.22;87.38
61900;BME280;47853;55.890;37.664;2024-02-15T11:08:05;100804.31;;;-8.45;90.20
61900;BME280;47853;55.890;37.664;2024-02-15T11:10:31;100813.38;;;-7.96;93.70
61900;BME280;47853;55.890;37.664;2024-02-15T11:12:57;100800.84;;;-8.41;94.88
61900;BME280;47853;55.890;37.664;2024-02-15T11:18:03;100800.19;;;-8.63;94.57
61900;BME280;47853;55.890;37.664;2024-02-15T11:23:00;100816.53;;;-8.61;97.21
61900;BME280;47853;55.890;37.664;2024-02-15T11:25:36;100810.28;;;-8.34;95.43
61900;BME280;47853;55.890;37.664;2024-02-15T11:30:46;100811.81;;;-8.12;91.53
61900;BME280;47853;55.890;37.664;2024-02-15T11:33:27;100825.91;;;-8.51;91.56
61900;BME280;47853;55.890;37.664;2024-02-15T11:36:12;100830.56;;;-7.96;93.77
61900;BME280;47853;55.890;37.664;2024-02-15T11:38:39;100827.31;;;-8.16;87.59
61900;BME280;47853;55.890;37.664;2024-02-15T11:41:05;100834.09;;;-8.05;89.56
61900;BME280;47853;55.890;37.664;2024-02-15T11:46:06;100832.81;;;-7.61;87.69
61900;BME280;47853;55.890;37.664;2024-02-15T11:48:36;100826.59;;;-8.36;86.50
61900;BME280;47853;55.890;37.664;2024-02-15T11:51:02;100823.38;;;-8.63;90.46
61900;BME280;47853;55.890;37.664;2024-02-15T11:53:27;100841.25;;;-8.43;89.11
61900;BME280;47853;55.890;37.664;2024-02-15T11:56:02;100833.09;;;-9.10;93.12
61900;BME280;47853;55.890;37.664;2024-02-15T11:58:28;100814.28;;;-9.19;94.75
61900;BME280;47853;55.890;37.664;2024-02-15T12:01:01;100813.34;;;-9.07;92.81
61900;BME280;47853;55.890;37.664;2024-02-15T12:03:27;100830.00;;;-8.30;94.29
61900;BME280;47853;55.890;37.664;2024-02-15T12:05:54;100748.81;;;-8.82;92.97
61900;BME280;47853;55.890;37.664;2024-02-15T12:08:20;100753.41;;;-9.26;90.34
61900;BME280;47853;55.890;37.664;2024-02-15T12:10:57;100823.44;;;-8.72;93.86
61900;BME280;47853;55.890;37.664;2024-02-15T12:13:22;100777.50;;;-9.50;95.26
61900;BME280;47853;55.890;37.664;2024-02-15T12:15:58;100816.72;;;-8.95;95.21
61900;BME280;47853;55.890;37.664;2024-02-15T12:18:23;100808.06;;;-8.86;93.71
61900;BME280;47853;55.890;37.664;2024-02-15T12:20:49;100831.34;;;-9.02;93.28
61900;BME280;47853;55.890;37.664;2024-02-15T12:23:14;100851.94;;;-9.00;93.97
61900;BME280;47853;55.890;37.664;2024-02-15T12:25:40;100834.59;;;-8.70;94.72
61900;BME280;47853;55.890;37.664;2024-02-15T12:28:05;100864.66;;;-8.68;94.79
61900;BME280;47853;55.890;37.664;2024-02-15T12:30:34;100850.56;;;-8.23;96.21
61900;BME280;47853;55.890;37.664;2024-02-15T12:33:18;100830.78;;;-8.23;93.88
61900;BME280;47853;55.890;37.664;2024-02-15T12:35:43;100850.13;;;-8.81;94.29
61900;BME280;47853;55.890;37.664;2024-02-15T12:38:09;100830.91;;;-8.38;94.16
61900;BME280;47853;55.890;37.664;2024-02-15T12:40:40;100851.84;;;-8.82;95.02
61900;BME280;47853;55.890;37.664;2024-02-15T12:43:06;100813.19;;;-7.76;93.46
61900;BME280;47853;55.890;37.664;2024-02-15T12:45:35;100835.84;;;-9.62;98.12
61900;BME280;47853;55.890;37.664;2024-02-15T12:48:36;100744.78;;;-9.20;100.00
61900;BME280;47853;55.890;37.664;2024-02-15T12:51:13;100773.34;;;-9.98;100.00